Time;durP1;ratioP1;P1;durP2;ratioP2;P2;SDS_P1;SDS_P2;PMS_P1;PMS_P2;Temp;Humidity;BMP_temperature;BMP_pressure;BME280_temperature;BME280_humidity;BME280_pressure;Samples;Min_cycle;Max_cycle;Signal;HPM_P1;HPM_P2
2023/01/03 00:01:38;;;;;;;25.90;15.90;;;;;;;4.46;91.89;99955.36;106342;1306;139205;-56
2023/01/03 00:04:05;;;;;;;;;;;;;;;4.51;92.55;99954.73;106517;1292;22516;-56
2023/01/03 00:06:37;;;;;;;27.20;14.70;;;;;;;4.56;93.33;99954.91;106487;1303;24377;-56
2023/01/03 00:09:08;;;;;;;23.50;14.50;;;;;;;4.63;93.81;99950.98;106413;1289;139303;-55
2023/01/03 00:14:22;;;;;;;25.00;14.80;;;;;;;4.77;94.91;99954.84;106337;1305;139318;-56
2023/01/03 00:16:51;;;;;;;29.80;15.90;;;;;;;4.84;95.24;99954.41;106486;1306;22779;-56
2023/01/03 00:19:18;;;;;;;27.20;16.40;;;;;;;4.89;95.83;99948.15;106485;1303;22234;-56
2023/01/03 00:21:45;;;;;;;;;;;;;;;4.94;95.79;99942.92;106331;1305;139581;-57
2023/01/03 00:24:11;;;;;;;28.50;14.00;;;;;;;4.98;95.95;99940.15;106457;1303;22210;-56
2023/01/03 00:26:39;;;;;;;21.60;13.00;;;;;;;5.03;95.98;99940.38;106370;1305;138293;-56
2023/01/03 00:29:07;;;;;;;22.80;13.50;;;;;;;5.06;96.28;99937.78;106425;1305;22136;-56
2023/01/03 00:31:34;;;;;;;24.50;13.60;;;;;;;5.12;96.64;99934.08;106428;1305;139749;-55
2023/01/03 00:34:01;;;;;;;24.00;14.00;;;;;;;5.17;96.59;99935.16;106488;1287;22828;-56
2023/01/03 00:36:28;;;;;;;21.10;13.20;;;;;;;5.22;96.41;99936.77;106429;1305;22258;-55
2023/01/03 00:38:55;;;;;;;;;;;;;;;5.26;96.88;99933.70;106359;1305;138869;-55
2023/01/03 00:41:21;;;;;;;18.80;12.10;;;;;;;5.30;96.84;99932.23;106381;1308;23038;-56
2023/01/03 00:43:48;;;;;;;20.90;13.40;;;;;;;5.31;96.89;99925.21;106332;1300;137594;-55
2023/01/03 00:46:16;;;;;;;23.40;14.20;;;;;;;5.36;96.94;99917.98;106537;1305;22260;-56
2023/01/03 00:48:43;;;;;;;21.60;13.40;;;;;;;5.38;96.52;99916.11;106469;1300;22431;-55
2023/01/03 00:51:11;;;;;;;;;;;;;;;5.38;96.43;99912.73;106367;1305;138996;-56
2023/01/03 00:53:38;;;;;;;24.80;12.80;;;;;;;5.38;96.16;99910.61;106468;1305;22916;-56
2023/01/03 00:56:07;;;;;;;22.70;12.60;;;;;;;5.37;95.71;99909.29;106330;1305;139843;-56
2023/01/03 00:58:34;;;;;;;23.50;14.40;;;;;;;5.38;96.02;99905.63;106453;1305;22180;-56
2023/01/03 01:01:16;;;;;;;21.80;13.40;;;;;;;5.38;95.97;99903.92;106462;1298;22333;-56
2023/01/03 01:03:46;;;;;;;22.70;13.10;;;;;;;5.39;95.79;99903.01;106353;1308;139775;-56
2023/01/03 01:06:14;;;;;;;21.30;14.60;;;;;;;5.38;95.80;99902.77;106434;1305;22127;-56
2023/01/03 01:08:42;;;;;;;22.70;13.50;;;;;;;5.37;95.42;99899.85;106383;1298;139698;-56
2023/01/03 01:11:09;;;;;;;22.40;14.60;;;;;;;5.36;95.20;99895.11;106448;1297;22134;-56
2023/01/03 01:13:35;;;;;;;;;;;;;;;5.33;94.81;99890.45;106386;1308;138199;-56
2023/01/03 01:16:11;;;;;;;22.80;13.90;;;;;;;5.29;94.73;99885.30;106413;1305;22165;-56
2023/01/03 01:18:39;;;;;;;23.10;14.00;;;;;;;5.27;94.74;99881.23;106398;1308;22137;-56
2023/01/03 01:21:06;;;;;;;23.40;14.80;;;;;;;5.25;94.51;99874.14;106300;1306;137787;-56
2023/01/03 01:23:34;;;;;;;25.30;15.60;;;;;;;5.22;94.32;99871.90;106483;1305;22223;-56
2023/01/03 01:26:01;;;;;;;23.80;15.40;;;;;;;5.21;94.58;99868.21;106378;1305;138862;-56
2023/01/03 01:28:28;;;;;;;22.90;14.50;;;;;;;5.18;94.42;99862.79;106467;1308;22396;-56
2023/01/03 01:30:59;;;;;;;22.80;14.60;;;;;;;5.16;94.48;99862.98;106471;1305;22198;-56
2023/01/03 01:33:26;;;;;;;19.50;13.20;;;;;;;5.10;94.46;99850.57;106326;1306;139129;-56
2023/01/03 01:35:53;;;;;;;21.30;13.50;;;;;;;5.13;94.48;99856.17;106432;1308;22223;-56
2023/01/03 01:38:19;;;;;;;23.30;13.70;;;;;;;5.14;94.78;99854.21;106289;1300;139646;-56
2023/01/03 01:40:46;;;;;;;22.10;13.80;;;;;;;5.16;95.08;99855.75;106379;1308;22139;-56
2023/01/03 01:46:24;;;;;;;18.70;13.00;;;;;;;5.20;95.19;99838.26;106471;1305;22141;-56
2023/01/03 01:49:03;;;;;;;19.50;13.00;;;;;;;5.21;95.47;99829.11;106466;1308;22268;-57
2023/01/03 01:51:32;;;;;;;20.20;12.80;;;;;;;5.22;95.42;99826.40;106237;1300;140183;-56
2023/01/03 01:54:00;;;;;;;19.80;12.60;;;;;;;5.24;95.09;99822.95;106390;1301;22282;-56
2023/01/03 01:56:29;;;;;;;17.00;12.50;;;;;;;5.22;95.38;99815.98;106306;1308;140248;-56
2023/01/03 01:58:56;;;;;;;19.30;13.20;;;;;;;5.22;95.18;99822.58;106403;1308;22322;-56
2023/01/03 02:01:23;;;;;;;18.40;12.20;;;;;;;5.21;95.26;99817.73;106390;1306;22384;-57
2023/01/03 02:04:08;;;;;;;17.90;12.70;;;;;;;5.21;95.34;99816.52;106322;1308;138580;-56
2023/01/03 02:06:35;;;;;;;19.60;11.80;;;;;;;5.19;95.14;99812.10;106330;1299;22143;-56
2023/01/03 02:09:02;;;;;;;17.00;11.70;;;;;;;5.16;95.22;99804.96;106344;1305;138802;-56
2023/01/03 02:11:36;;;;;;;;;;;;;;;5.14;95.00;99800.36;106602;1304;22333;-56
2023/01/03 02:14:18;;;;;;;15.10;11.10;;;;;;;5.11;94.55;99801.16;106540;1297;124577;-56
2023/01/03 02:17:07;;;;;;;15.20;11.20;;;;;;;5.05;94.27;99799.86;106641;1305;23089;-56
2023/01/03 02:19:34;;;;;;;20.70;11.80;;;;;;;5.00;94.38;99790.13;106512;1304;22177;-56
2023/01/03 02:22:38;;;;;;;16.60;12.10;;;;;;;4.96;94.24;99788.64;106495;1299;138033;-56
2023/01/03 02:25:40;;;;;;;17.30;12.40;;;;;;;4.93;94.47;99782.45;106604;1287;22130;-56
2023/01/03 02:28:10;;;;;;;18.60;13.10;;;;;;;4.90;94.68;99774.96;106743;1302;22128;-56
2023/01/03 02:30:36;;;;;;;17.00;12.00;;;;;;;4.91;94.85;99774.83;106718;1286;22114;-56
2023/01/03 02:33:03;;;;;;;22.80;12.70;;;;;;;4.91;94.98;99768.85;106656;1303;139395;-56
2023/01/03 02:35:38;;;;;;;16.90;11.30;;;;;;;4.92;95.02;99764.65;106560;1295;22226;-56
2023/01/03 02:38:12;;;;;;;19.10;11.80;;;;;;;4.92;95.13;99764.98;106418;1304;139966;-56
2023/01/03 02:40:43;;;;;;;19.70;13.40;;;;;;;4.91;95.18;99764.36;106610;1296;22208;-56
2023/01/03 02:43:10;;;;;;;19.70;13.10;;;;;;;4.91;95.40;99764.91;106467;1304;22149;-56
2023/01/03 02:45:47;;;;;;;20.40;13.70;;;;;;;4.92;95.39;99766.44;106496;1304;138293;-57
2023/01/03 02:48:29;;;;;;;21.80;13.20;;;;;;;4.93;95.63;99765.55;106620;1290;22153;-56
2023/01/03 02:50:57;;;;;;;19.60;13.30;;;;;;;4.95;95.68;99760.83;106323;1288;139034;-56
2023/01/03 02:53:26;;;;;;;21.60;12.80;;;;;;;4.96;95.70;99759.78;106561;1305;22129;-56
2023/01/03 02:55:54;;;;;;;24.60;13.40;;;;;;;4.95;95.59;99755.25;106460;1304;139260;-56
2023/01/03 02:58:22;;;;;;;18.40;12.40;;;;;;;4.91;95.13;99753.20;106571;1305;22178;-56
2023/01/03 03:00:50;;;;;;;18.60;13.70;;;;;;;4.87;94.82;99752.19;106509;1308;22917;-56
2023/01/03 03:03:19;;;;;;;21.00;14.30;;;;;;;4.81;94.42;99754.24;106434;1304;137791;-56
2023/01/03 03:05:53;;;;;;;18.90;13.00;;;;;;;4.73;93.85;99750.88;106513;1295;22329;-56
2023/01/03 03:08:19;;;;;;;18.00;12.50;;;;;;;4.70;93.65;99758.91;106406;1305;137948;-56
2023/01/03 03:13:37;;;;;;;22.60;12.90;;;;;;;4.61;93.45;99759.72;106575;1299;22922;-56
2023/01/03 03:16:11;;;;;;;18.80;11.90;;;;;;;4.59;93.46;99758.66;106433;1306;138711;-56
2023/01/03 03:18:57;;;;;;;20.40;12.10;;;;;;;4.57;93.55;99761.91;106481;1296;22274;-57
2023/01/03 03:29:57;;;;;;;19.60;12.10;;;;;;;4.52;94.35;99750.46;106497;1305;22257;-56
2023/01/03 03:32:24;;;;;;;20.40;12.80;;;;;;;4.52;94.29;99746.14;106413;1300;140193;-56
2023/01/03 03:34:52;;;;;;;22.20;13.60;;;;;;;4.53;94.69;99742.58;106616;1300;23246;-56
2023/01/03 03:37:19;;;;;;;21.20;14.00;;;;;;;4.51;94.89;99740.17;106575;1302;22103;-56
2023/01/03 03:45:48;;;;;;;22.10;14.00;;;;;;;4.56;95.83;99737.96;106476;1301;139754;-56
2023/01/03 03:48:28;;;;;;;20.30;13.70;;;;;;;4.59;95.79;99737.63;106713;1302;22128;-56
2023/01/03 03:51:05;;;;;;;25.10;14.90;;;;;;;4.61;95.87;99732.09;106529;1302;138278;-56
2023/01/03 03:53:33;;;;;;;26.70;14.80;;;;;;;4.62;96.13;99723.09;106622;1302;22150;-56
2023/01/03 03:56:06;;;;;;;22.30;15.80;;;;;;;4.63;96.47;99726.86;106518;1302;139696;-56
2023/01/03 03:58:41;;;;;;;21.00;15.40;;;;;;;4.62;96.60;99723.93;106638;1302;22313;-56
2023/01/03 04:01:08;;;;;;;28.00;15.60;;;;;;;4.66;96.55;99728.40;106732;1294;22286;-56
2023/01/03 04:03:35;;;;;;;24.20;16.70;;;;;;;4.67;96.57;99721.05;106580;1302;139032;-56
2023/01/03 04:06:07;;;;;;;23.90;15.90;;;;;;;4.67;97.02;99718.85;106590;1305;22209;-56
2023/01/03 04:08:34;;;;;;;22.50;15.30;;;;;;;4.67;96.76;99719.39;106504;1295;138559;-56
2023/01/03 04:11:07;;;;;;;24.80;16.40;;;;;;;4.69;96.78;99718.27;106708;1303;22108;-56
2023/01/03 04:13:35;;;;;;;21.90;15.40;;;;;;;4.71;96.81;99715.10;106699;1302;22228;-56
2023/01/03 04:16:02;;;;;;;25.40;15.20;;;;;;;4.72;96.65;99715.10;106574;1288;139384;-56
2023/01/03 04:18:29;;;;;;;20.70;14.90;;;;;;;4.73;97.02;99718.05;106685;1302;22154;-57
2023/01/03 04:20:56;;;;;;;20.40;14.10;;;;;;;4.73;96.75;99720.74;106604;1302;138172;-56
2023/01/03 04:23:23;;;;;;;25.00;14.40;;;;;;;4.74;96.72;99719.86;106721;1302;23375;-56
2023/01/03 04:25:49;;;;;;;;;;;;;;;4.74;96.77;99712.10;106664;1302;140410;-56
2023/01/03 04:28:16;;;;;;;22.40;14.40;;;;;;;4.72;96.79;99705.34;106706;1303;22109;-56
2023/01/03 04:30:43;;;;;;;20.20;13.30;;;;;;;4.72;96.45;99704.55;106725;1295;22229;-56
2023/01/03 04:33:10;;;;;;;19.70;13.00;;;;;;;4.71;96.52;99701.56;106627;1305;138296;-57
2023/01/03 04:35:37;;;;;;;;;;;;;;;4.69;96.41;99707.75;106667;1295;22465;-56
2023/01/03 04:38:03;;;;;;;19.40;12.50;;;;;;;4.68;96.27;99710.83;106614;1302;125301;-56
2023/01/03 04:40:32;;;;;;;;;;;;;;;4.67;96.75;99709.39;106655;1302;23271;-56
2023/01/03 04:45:47;;;;;;;18.70;12.90;;;;;;;4.69;96.97;99701.33;106563;1302;143307;-56
2023/01/03 04:49:45;;;;;;;18.80;14.10;;;;;;;4.74;96.94;99699.55;99452;1321;545025;-55
2023/01/03 04:52:15;;;;;;;17.70;13.20;;;;;;;4.72;96.84;99704.09;101128;1322;22559;-55
2023/01/03 04:54:42;;;;;;;20.00;13.60;;;;;;;4.74;97.12;99706.75;100939;1308;24328;-55
2023/01/03 04:57:08;;;;;;;;;;;;;;;4.75;97.46;99699.27;101008;1322;138617;-55
2023/01/03 04:59:35;;;;;;;20.50;13.50;;;;;;;4.76;97.33;99697.48;100970;1307;24497;-55
2023/01/03 05:02:02;;;;;;;;;;;;;;;4.74;97.33;99690.92;100956;1315;138006;-55
2023/01/03 05:04:30;;;;;;;17.20;11.90;;;;;;;4.74;97.13;99688.31;101097;1308;177629;-55
2023/01/03 05:06:57;;;;;;;16.50;12.50;;;;;;;4.73;97.29;99680.09;101236;1304;25343;-55
2023/01/03 05:09:26;;;;;;;21.50;13.80;;;;;;;4.71;97.04;99680.27;101214;1305;138147;-55
2023/01/03 05:11:52;;;;;;;20.30;14.40;;;;;;;4.68;96.64;99686.17;105516;1297;22190;-55
2023/01/03 05:14:19;;;;;;;;;;;;;;;4.65;96.67;99681.90;105974;1310;139509;-56
2023/01/03 05:16:46;;;;;;;17.90;12.40;;;;;;;4.65;96.63;99679.38;106063;1312;22222;-56
2023/01/03 05:19:13;;;;;;;;;;;;;;;4.66;96.72;99669.77;105982;1312;22407;-56
2023/01/03 05:27:27;;;;;;;16.20;12.60;;;;;;;4.67;97.19;99674.71;105006;1321;138651;-56
2023/01/03 05:29:54;;;;;;;21.80;13.10;;;;;;;4.67;96.96;99669.73;105061;1321;22194;-56
2023/01/03 05:32:22;;;;;;;18.50;13.70;;;;;;;4.71;97.32;99673.58;104940;1321;140190;-55
2023/01/03 05:34:49;;;;;;;19.50;13.10;;;;;;;4.72;96.83;99667.47;105301;1318;22166;-56
2023/01/03 05:37:16;;;;;;;19.80;13.50;;;;;;;4.73;97.18;99671.54;105342;1318;22376;-56
2023/01/03 05:39:42;;;;;;;23.60;14.10;;;;;;;4.74;97.27;99669.67;105250;1318;139645;-55
2023/01/03 05:42:09;;;;;;;23.80;14.00;;;;;;;4.74;97.02;99663.52;105372;1318;22191;-56
2023/01/03 05:44:36;;;;;;;25.10;14.30;;;;;;;4.74;96.76;99662.07;105270;1318;138637;-55
2023/01/03 05:47:03;;;;;;;22.40;13.90;;;;;;;4.73;96.62;99661.86;105362;1318;23473;-56
2023/01/03 05:49:30;;;;;;;24.60;14.40;;;;;;;4.73;96.34;99665.68;105397;1317;22269;-56
2023/01/03 05:51:56;;;;;;;23.90;14.20;;;;;;;4.71;96.16;99669.17;105269;1303;138728;-56
2023/01/03 05:54:23;;;;;;;27.40;16.30;;;;;;;4.69;95.99;99673.09;105380;1318;22292;-56
2023/01/03 05:56:50;;;;;;;;;;;;;;;4.66;95.49;99673.84;105502;1310;138446;-56
2023/01/03 05:59:17;;;;;;;24.20;14.80;;;;;;;4.61;95.63;99673.91;105774;1308;22234;-56
2023/01/03 06:01:44;;;;;;;24.80;15.80;;;;;;;4.59;95.65;99679.80;106040;1312;140160;-60
2023/01/03 06:04:11;;;;;;;;;;;;;;;4.55;95.40;99676.77;106165;1310;22366;-55
2023/01/03 06:06:37;;;;;;;22.60;15.10;;;;;;;4.52;95.68;99673.96;106137;1312;22939;-56
2023/01/03 06:09:04;;;;;;;21.30;13.80;;;;;;;4.52;95.91;99674.30;106032;1312;138041;-56
2023/01/03 06:11:31;;;;;;;20.10;12.80;;;;;;;4.53;96.16;99671.55;106126;1311;22293;-56
2023/01/03 06:13:58;;;;;;;;;;;;;;;4.56;96.37;99668.67;106017;1310;138436;-56
2023/01/03 06:19:10;;;;;;;16.90;12.50;;;;;;;4.66;97.53;99669.52;106227;1297;22430;-56
2023/01/03 06:21:37;;;;;;;;;;;;;;;4.71;97.50;99671.18;106115;1312;138976;-56
2023/01/03 06:24:04;;;;;;;16.50;9.60;;;;;;;4.76;97.77;99669.19;106082;1301;22989;-56
2023/01/03 06:26:31;;;;;;;13.80;10.40;;;;;;;4.82;98.12;99666.20;105974;1311;139698;-56
2023/01/03 06:28:57;;;;;;;;;;;;;;;4.88;98.50;99665.09;106131;1303;22424;-55
2023/01/03 06:31:24;;;;;;;14.40;9.50;;;;;;;4.94;98.74;99667.61;106127;1312;23184;-56
2023/01/03 06:33:51;;;;;;;;;;;;;;;5.00;99.22;99666.46;106015;1308;138611;-56
2023/01/03 06:36:20;;;;;;;13.80;9.50;;;;;;;5.06;99.43;99660.17;106088;1312;22792;-56
2023/01/03 06:38:47;;;;;;;14.90;11.20;;;;;;;5.13;99.39;99653.65;106045;1309;138062;-56
2023/01/03 06:41:14;;;;;;;14.90;10.60;;;;;;;5.19;99.45;99664.88;106217;1309;22170;-55
2023/01/03 06:43:41;;;;;;;16.90;11.10;;;;;;;5.25;99.74;99678.11;106234;1310;22137;-56
2023/01/03 06:54:31;;;;;;;14.70;10.50;;;;;;;5.53;99.88;99660.37;106481;1306;22158;-55
2023/01/03 06:56:58;;;;;;;18.40;11.10;;;;;;;5.60;99.90;99681.08;106366;1306;138830;-56
2023/01/03 06:59:25;;;;;;;;;;;;;;;5.64;99.84;99673.83;106428;1307;23102;-55
2023/01/03 07:01:52;;;;;;;14.50;11.00;;;;;;;5.69;99.99;99683.64;106397;1306;123999;-55
2023/01/03 07:04:19;;;;;;;13.70;10.00;;;;;;;5.72;99.92;99690.32;106455;1306;22218;-56
2023/01/03 07:06:46;;;;;;;15.60;11.10;;;;;;;5.78;99.88;99690.12;106367;1306;22200;-55
2023/01/03 07:09:13;;;;;;;;;;;;;;;5.82;99.84;99690.91;106305;1291;138046;-55
2023/01/03 07:11:40;;;;;;;22.50;13.20;;;;;;;5.87;99.91;99689.91;106532;1298;22321;-55
2023/01/03 07:14:08;;;;;;;19.10;12.10;;;;;;;5.90;99.80;99700.66;106335;1306;138383;-55
2023/01/03 07:16:42;;;;;;;17.50;11.10;;;;;;;5.92;99.85;99700.45;106444;1305;22162;-55
2023/01/03 07:19:11;;;;;;;17.30;10.10;;;;;;;5.93;99.61;99698.15;106520;1305;22100;-55
2023/01/03 07:21:38;;;;;;;15.30;10.80;;;;;;;5.98;99.61;99703.56;106397;1306;137876;-55
2023/01/03 07:24:05;;;;;;;;;;;;;;;6.01;99.37;99706.95;106433;1306;22417;-55
2023/01/03 07:26:33;;;;;;;16.10;11.90;;;;;;;6.03;99.22;99708.14;106375;1306;126068;-55
2023/01/03 07:29:01;;;;;;;17.90;12.00;;;;;;;6.05;99.33;99708.48;106416;1302;22769;-55
2023/01/03 07:31:28;;;;;;;17.20;11.90;;;;;;;6.06;99.30;99712.98;106450;1284;22097;-55
2023/01/03 07:33:54;;;;;;;;;;;;;;;6.07;98.89;99719.29;106339;1301;138395;-55
2023/01/03 07:36:21;;;;;;;15.30;11.60;;;;;;;6.08;98.99;99721.39;106349;1305;22135;-55
2023/01/03 07:38:48;;;;;;;15.30;11.70;;;;;;;6.12;99.05;99730.80;106284;1299;138419;-55
2023/01/03 07:41:15;;;;;;;;;;;;;;;6.14;99.05;99729.63;106512;1306;22439;-55
2023/01/03 07:43:46;;;;;;;18.30;11.80;;;;;;;6.15;98.90;99733.52;106423;1302;22212;-55
2023/01/03 07:46:14;;;;;;;19.60;12.90;;;;;;;6.19;98.67;99738.98;106477;1306;22246;-55
2023/01/03 07:48:41;;;;;;;20.00;12.80;;;;;;;6.21;98.81;99738.77;106454;1306;22152;-55
2023/01/03 07:51:08;;;;;;;17.90;12.80;;;;;;;6.24;98.65;99740.20;106336;1306;137951;-55
2023/01/03 07:53:37;;;;;;;19.60;13.30;;;;;;;6.27;98.75;99735.38;106502;1306;22239;-55
2023/01/03 07:56:10;;;;;;;21.70;14.20;;;;;;;6.30;98.75;99732.77;106400;1301;138153;-55
2023/01/03 07:58:42;;;;;;;24.80;14.40;;;;;;;6.33;98.59;99729.41;106423;1306;22132;-55
2023/01/03 08:01:14;;;;;;;21.00;14.30;;;;;;;6.35;98.45;99723.70;106494;1299;22228;-55
2023/01/03 08:03:43;;;;;;;19.20;13.10;;;;;;;6.37;98.29;99721.27;106382;1305;138063;-56
2023/01/03 08:06:12;;;;;;;17.50;13.00;;;;;;;6.39;98.06;99717.67;106398;1300;22232;-55
2023/01/03 08:08:39;;;;;;;22.10;14.30;;;;;;;6.42;98.00;99714.77;106431;1291;138039;-55
2023/01/03 08:13:51;;;;;;;16.70;12.20;;;;;;;6.48;97.90;99717.22;106371;1305;124489;-55
2023/01/03 08:16:18;;;;;;;18.30;11.30;;;;;;;6.49;97.97;99726.56;106477;1306;22544;-55
2023/01/03 08:18:45;;;;;;;;;;;;;;;6.51;97.99;99724.64;106513;1297;23616;-55
2023/01/03 08:21:13;;;;;;;16.90;11.30;;;;;;;6.52;97.55;99726.21;106320;1298;124205;-55
2023/01/03 08:23:40;;;;;;;20.60;11.40;;;;;;;6.54;97.66;99723.13;106498;1297;22230;-55
2023/01/03 08:26:09;;;;;;;16.20;11.20;;;;;;;6.57;97.68;99725.50;106365;1298;138624;-55
2023/01/03 08:28:36;;;;;;;17.10;11.80;;;;;;;6.60;97.69;99728.40;106471;1306;22204;-55
2023/01/03 08:31:20;;;;;;;22.80;11.50;;;;;;;6.63;97.81;99736.92;106470;1306;22297;-55
2023/01/03 08:33:58;;;;;;;15.80;10.70;;;;;;;6.65;97.66;99729.84;106383;1305;137944;-56
2023/01/03 08:36:25;;;;;;;15.10;10.30;;;;;;;6.71;97.66;99727.95;106446;1306;22135;-55
2023/01/03 08:38:58;;;;;;;25.00;11.00;;;;;;;6.76;97.56;99725.39;106277;1306;138318;-55
2023/01/03 08:41:26;;;;;;;15.50;11.80;;;;;;;6.82;97.72;99727.42;106437;1303;22316;-56
2023/01/03 08:43:53;;;;;;;17.70;12.70;;;;;;;6.87;97.42;99734.13;106339;1306;139626;-56
2023/01/03 08:46:20;;;;;;;15.40;10.70;;;;;;;6.92;97.48;99731.14;106446;1306;22146;-56
2023/01/03 08:48:46;;;;;;;;;;;;;;;6.96;97.43;99733.41;106360;1306;23619;-55
2023/01/03 08:51:13;;;;;;;12.30;9.80;;;;;;;6.99;97.07;99726.24;106344;1306;124245;-56
2023/01/03 08:53:40;;;;;;;17.90;11.10;;;;;;;7.00;96.93;99718.31;106453;1306;22116;-57
2023/01/03 08:56:06;;;;;;;;;;;;;;;7.03;96.75;99720.48;106382;1306;138959;-55
2023/01/03 08:58:33;;;;;;;21.00;10.70;;;;;;;7.04;96.57;99726.72;106450;1306;22202;-56
2023/01/03 09:01:01;;;;;;;16.00;11.60;;;;;;;7.06;96.63;99729.36;106403;1300;22090;-55
2023/01/03 09:03:28;;;;;;;14.80;11.60;;;;;;;7.09;96.62;99722.26;106377;1306;138714;-55
2023/01/03 09:05:59;;;;;;;16.00;11.20;;;;;;;7.13;96.48;99723.50;106446;1292;22303;-56
2023/01/03 09:08:25;;;;;;;15.50;11.50;;;;;;;7.17;96.46;99720.12;106366;1306;138724;-56
2023/01/03 09:10:52;;;;;;;;;;;;;;;7.21;96.53;99717.84;106383;1306;22444;-56
2023/01/03 09:13:19;;;;;;;17.00;10.80;;;;;;;7.27;96.38;99714.45;106458;1306;22204;-55
2023/01/03 09:15:46;;;;;;;;;;;;;;;7.32;96.49;99714.27;106421;1306;139390;-55
2023/01/03 09:18:13;;;;;;;17.60;12.10;;;;;;;7.37;96.37;99714.75;106457;1294;22224;-55
2023/01/03 09:20:40;;;;;;;15.00;11.70;;;;;;;7.42;96.38;99715.60;106339;1290;138599;-55
2023/01/03 09:23:07;;;;;;;16.70;11.90;;;;;;;7.47;96.18;99718.77;106473;1306;22794;-55
2023/01/03 09:25:34;;;;;;;16.60;11.80;;;;;;;7.53;96.08;99710.91;106465;1296;22205;-55
2023/01/03 09:28:03;;;;;;;21.00;13.30;;;;;;;7.59;95.94;99704.90;106367;1305;138679;-55
2023/01/03 09:30:30;;;;;;;;;;;;;;;7.65;95.77;99706.51;106476;1305;22358;-55
2023/01/03 09:32:56;;;;;;;15.40;11.20;;;;;;;7.70;95.65;99704.95;106371;1299;124909;-55
2023/01/03 09:35:23;;;;;;;17.50;11.90;;;;;;;7.76;95.57;99707.49;106439;1301;23388;-55
2023/01/03 09:37:50;;;;;;;;;;;;;;;7.81;95.38;99706.74;106365;1306;138228;-55
2023/01/03 09:40:16;;;;;;;16.70;11.40;;;;;;;7.86;95.22;99702.13;106479;1300;22120;-55
2023/01/03 09:45:31;;;;;;;18.40;12.10;;;;;;;7.94;94.80;99704.33;106386;1306;124636;-55
2023/01/03 09:48:00;;;;;;;18.00;12.20;;;;;;;7.99;94.78;99700.48;106270;1306;22109;-55
2023/01/03 09:50:27;;;;;;;20.00;12.40;;;;;;;8.03;94.56;99699.45;106382;1300;139228;-55
2023/01/03 10:04:48;;;;;;;17.70;12.10;;;;;;;8.39;93.68;99687.75;106487;1298;23486;-55
2023/01/03 10:07:39;;;;;;;19.30;11.60;;;;;;;8.45;93.58;99687.73;106475;1306;22356;-55
2023/01/03 10:10:13;;;;;;;17.20;12.20;;;;;;;8.53;93.26;99687.89;106348;1291;138032;-55
2023/01/03 10:12:42;;;;;;;15.20;11.10;;;;;;;8.59;93.06;99682.04;106378;1306;22125;-56
2023/01/03 10:15:16;;;;;;;20.20;12.80;;;;;;;8.64;92.76;99676.55;106369;1306;137611;-55
2023/01/03 10:17:52;;;;;;;19.80;12.40;;;;;;;8.69;92.54;99679.19;106399;1307;22117;-55
2023/01/03 10:20:25;;;;;;;16.40;12.30;;;;;;;8.74;92.34;99679.41;106397;1306;138765;-55
2023/01/03 10:22:58;;;;;;;18.80;12.00;;;;;;;8.79;92.16;99681.23;106426;1290;22288;-55
2023/01/03 10:25:26;;;;;;;;;;;;;;;8.84;91.86;99683.45;106498;1306;23505;-55
2023/01/03 10:28:09;;;;;;;17.70;11.30;;;;;;;8.89;91.63;99676.05;106380;1306;124967;-55
2023/01/03 10:30:58;;;;;;;19.30;11.60;;;;;;;8.95;91.38;99674.02;106479;1300;22968;-55
2023/01/03 10:33:40;;;;;;;19.20;12.10;;;;;;;9.01;91.25;99680.29;106305;1306;138141;-55
2023/01/03 10:36:07;;;;;;;25.30;13.90;;;;;;;9.06;90.92;99688.88;106509;1306;23340;-55
2023/01/03 10:38:34;;;;;;;19.70;10.90;;;;;;;9.11;90.57;99686.78;106332;1306;138134;-55
2023/01/03 10:41:19;;;;;;;12.80;10.20;;;;;;;9.16;90.27;99691.39;106413;1289;22143;-56
2023/01/03 10:43:55;;;;;;;15.40;10.50;;;;;;;9.23;89.97;99695.00;106503;1306;22980;-56
2023/01/03 10:46:24;;;;;;;20.50;10.90;;;;;;;9.28;89.70;99691.37;106465;1297;23300;-56
2023/01/03 10:48:51;;;;;;;16.00;11.50;;;;;;;9.32;89.29;99693.95;106475;1305;22833;-56
2023/01/03 10:52:00;;;;;;;16.80;11.40;;;;;;;9.37;88.97;99693.66;106313;1305;138440;-56
2023/01/03 10:54:42;;;;;;;14.70;11.20;;;;;;;9.42;88.62;99695.96;106398;1306;22222;-56
2023/01/03 10:57:45;;;;;;;19.50;12.80;;;;;;;9.45;88.42;99708.42;106406;1305;137410;-56
2023/01/03 11:00:35;;;;;;;14.80;10.10;;;;;;;9.50;87.97;99710.21;106704;1302;22115;-56
2023/01/03 11:03:13;;;;;;;19.10;10.90;;;;;;;9.55;87.66;99709.77;106556;1299;138703;-56
2023/01/03 11:05:41;;;;;;;13.50;10.60;;;;;;;9.57;87.48;99709.39;106737;1302;22127;-56
2023/01/03 11:08:34;;;;;;;15.10;9.80;;;;;;;9.58;86.61;99717.08;106623;1303;141097;-56
2023/01/03 11:11:00;;;;;;;15.50;9.80;;;;;;;9.56;86.36;99726.11;106646;1302;22332;-56
2023/01/03 11:13:28;;;;;;;;;;;;;;;9.53;86.30;99725.74;106598;1303;22324;-56
2023/01/03 11:15:57;;;;;;;15.00;9.40;;;;;;;9.50;86.17;99725.55;106570;1280;124523;-56
2023/01/03 11:18:26;;;;;;;14.00;10.20;;;;;;;9.47;86.14;99721.41;106677;1302;22290;-56
2023/01/03 11:20:55;;;;;;;18.70;9.90;;;;;;;9.43;86.05;99717.85;106560;1295;138126;-56
2023/01/03 11:23:41;;;;;;;14.90;9.30;;;;;;;9.41;86.17;99714.88;106726;1302;22338;-56
2023/01/03 11:26:32;;;;;;;21.90;11.90;;;;;;;9.40;86.08;99716.38;106582;1302;138096;-56
2023/01/03 11:29:37;;;;;;;12.70;9.40;;;;;;;9.38;86.25;99719.88;106725;1296;22114;-56
2023/01/03 11:32:20;;;;;;;14.10;10.10;;;;;;;9.38;86.30;99718.25;106568;1302;138198;-56
2023/01/03 11:34:51;;;;;;;14.90;10.10;;;;;;;9.40;86.43;99725.20;106751;1302;23435;-56
2023/01/03 11:37:56;;;;;;;15.90;10.60;;;;;;;9.41;86.47;99727.27;106691;1297;22851;-56
2023/01/03 11:40:41;;;;;;;16.00;10.30;;;;;;;9.42;86.34;99730.60;106710;1303;22245;-56
2023/01/03 11:43:32;;;;;;;13.90;10.50;;;;;;;9.41;86.28;99737.23;106697;1294;22145;-56
2023/01/03 11:46:33;;;;;;;15.00;10.70;;;;;;;9.41;86.22;99733.54;106551;1303;140257;-56
2023/01/03 11:49:06;;;;;;;15.50;10.50;;;;;;;9.41;86.06;99734.67;106670;1290;22124;-56
2023/01/03 11:51:55;;;;;;;19.20;11.00;;;;;;;9.41;86.04;99737.93;106632;1302;138385;-56
2023/01/03 11:54:40;;;;;;;13.00;9.70;;;;;;;9.41;85.81;99745.55;106691;1296;22230;-56
2023/01/03 11:57:42;;;;;;;18.10;10.70;;;;;;;9.42;85.96;99746.48;106606;1296;138679;-56
2023/01/03 12:00:25;;;;;;;18.90;12.70;;;;;;;9.42;85.72;99744.48;106293;1308;22183;-56
2023/01/03 12:03:10;;;;;;;14.00;10.40;;;;;;;9.41;85.55;99740.76;106095;1303;138572;-56
2023/01/03 12:05:50;;;;;;;14.40;10.00;;;;;;;9.40;85.38;99740.27;106050;1310;23525;-56
2023/01/03 12:08:58;;;;;;;15.40;9.30;;;;;;;9.39;85.34;99730.99;106171;1308;141103;-56
2023/01/03 12:11:37;;;;;;;16.10;10.40;;;;;;;9.40;85.06;99734.11;106178;1308;23218;-56
2023/01/03 12:14:13;;;;;;;15.90;9.90;;;;;;;9.40;85.18;99735.79;106057;1308;138296;-55
2023/01/03 12:16:44;;;;;;;15.40;10.10;;;;;;;9.40;85.21;99737.74;106366;1308;22152;-56
2023/01/03 12:19:31;;;;;;;16.90;10.50;;;;;;;9.39;84.93;99738.23;106167;1301;22168;-56
2023/01/03 12:22:25;;;;;;;15.10;10.50;;;;;;;9.39;85.09;99731.80;106091;1308;139294;-56
2023/01/03 12:24:56;;;;;;;17.60;11.60;;;;;;;9.39;84.96;99723.96;106236;1308;22181;-56
2023/01/03 12:27:54;;;;;;;15.80;10.40;;;;;;;9.40;84.90;99725.45;106210;1305;138361;-55
2023/01/03 12:30:27;;;;;;;16.10;9.40;;;;;;;9.40;84.73;99721.55;106273;1308;23011;-56
2023/01/03 12:32:56;;;;;;;15.20;10.70;;;;;;;9.41;84.65;99722.00;106064;1302;138586;-55
2023/01/03 12:35:58;;;;;;;17.60;9.80;;;;;;;9.41;84.54;99722.02;106096;1309;22355;-56
2023/01/03 12:38:28;;;;;;;16.10;10.00;;;;;;;9.44;84.50;99726.95;105968;1293;138986;-56
2023/01/03 12:41:06;;;;;;;17.80;9.30;;;;;;;9.46;84.11;99722.05;105932;1308;23057;-56
2023/01/03 12:43:54;;;;;;;13.50;9.90;;;;;;;9.49;83.94;99720.62;106025;1302;22164;-56
2023/01/03 12:46:27;;;;;;;13.20;9.40;;;;;;;9.51;83.81;99717.41;106011;1310;22283;-56